Time;durP1;ratioP1;P1;durP2;ratioP2;P2;SDS_P1;SDS_P2;PMS_P1;PMS_P2;Temp;Humidity;BMP_temperature;BMP_pressure;BME280_temperature;BME280_humidity;BME280_pressure;Samples;Min_cycle;Max_cycle;Signal;HPM_P1;HPM_P2
2022/01/04 03:29:07;;;;;;;8.35;4.95;;;9.60;99.90;;;7.70;100.00;98947.94;5002630;28;20058;-84
2022/01/04 03:31:34;;;;;;;10.02;5.43;;;9.50;99.90;;;7.74;100.00;98935.63;5007716;28;20070;-83
2022/01/04 03:34:02;;;;;;;9.68;5.72;;;9.50;99.90;;;7.64;100.00;98919.78;5009239;28;20045;-84
2022/01/04 03:36:30;;;;;;;8.40;4.93;;;9.60;99.90;;;7.67;100.00;98913.94;5008710;28;20156;-84
2022/01/04 03:39:04;;;;;;;9.50;5.15;;;9.50;99.90;;;7.63;100.00;98908.13;5009084;28;20046;-84
2022/01/04 03:41:32;;;;;;;9.10;5.22;;;9.50;99.90;;;7.65;100.00;98894.38;5007589;28;20067;-83
2022/01/04 03:44:00;;;;;;;6.53;4.50;;;9.50;99.90;;;7.69;100.00;98894.78;5009131;28;20125;-84
2022/01/04 03:46:28;;;;;;;10.57;4.95;;;9.50;99.90;;;7.64;100.00;98885.41;5008878;28;20042;-82
2022/01/04 03:48:56;;;;;;;9.00;4.70;;;9.60;99.90;;;7.61;100.00;98888.53;5008991;28;20121;-84
2022/01/04 03:51:23;;;;;;;7.82;4.30;;;9.60;99.90;;;7.64;100.00;98887.31;5006794;28;20097;-84
2022/01/04 03:53:50;;;;;;;7.80;4.47;;;9.60;99.90;;;7.70;100.00;98875.66;5009101;28;20133;-83
2022/01/04 03:56:18;;;;;;;6.10;3.95;;;9.60;99.90;;;7.71;100.00;98866.50;4990816;28;20161;-84
2022/01/04 03:58:45;;;;;;;7.32;4.15;;;9.60;99.90;;;7.72;100.00;98861.91;4991272;28;20853;-83
2022/01/04 04:01:12;;;;;;;7.72;4.28;;;9.50;99.90;;;7.64;100.00;98854.81;5007347;28;20045;-82
2022/01/04 04:03:41;;;;;;;7.45;4.10;;;9.60;99.90;;;7.68;100.00;98849.81;4991169;28;20518;-81
2022/01/04 04:06:08;;;;;;;7.05;4.20;;;9.60;99.90;;;7.74;100.00;98847.09;5008530;28;20111;-82
2022/01/04 04:08:35;;;;;;;7.45;3.85;;;9.50;99.90;;;7.67;100.00;98840.84;5008529;28;20049;-81
2022/01/04 04:11:02;;;;;;;7.18;3.97;;;9.60;99.90;;;7.55;100.00;98834.41;5007273;28;20516;-81
2022/01/04 04:13:30;;;;;;;8.60;4.18;;;9.60;99.90;;;7.64;100.00;98825.84;4990921;28;20054;-82
2022/01/04 04:15:57;;;;;;;6.20;3.80;;;9.60;99.90;;;7.65;100.00;98823.97;5008554;28;20132;-82
2022/01/04 04:18:24;;;;;;;7.45;3.72;;;9.50;99.90;;;7.69;100.00;98814.44;5008666;28;20566;-82
2022/01/04 04:20:53;;;;;;;7.68;4.10;;;9.50;99.90;;;7.56;100.00;98815.25;5008015;28;20121;-82
2022/01/04 04:23:20;;;;;;;6.55;3.60;;;9.50;99.90;;;7.54;100.00;98802.94;5007568;28;20120;-82
2022/01/04 04:25:47;;;;;;;5.45;3.45;;;9.50;99.90;;;7.60;100.00;98799.41;5008668;28;20076;-82
2022/01/04 04:28:15;;;;;;;7.72;4.40;;;9.50;99.90;;;7.64;100.00;98793.38;5007899;28;20388;-84
2022/01/04 04:30:42;;;;;;;6.72;4.00;;;9.60;99.90;;;7.70;100.00;98783.59;4984480;28;20061;-84
2022/01/04 04:33:09;;;;;;;8.77;4.10;;;9.60;99.90;;;7.64;100.00;98784.44;5006224;28;20132;-84
2022/01/04 04:35:37;;;;;;;7.07;3.78;;;9.60;99.90;;;7.57;100.00;98783.59;5008301;28;20073;-84
2022/01/04 04:38:07;;;;;;;7.28;3.95;;;9.50;99.90;;;7.52;100.00;98776.09;5008395;28;20046;-84
2022/01/04 04:40:35;;;;;;;7.70;4.30;;;9.50;99.90;;;7.57;100.00;98778.16;5008451;28;20053;-84
2022/01/04 04:43:02;;;;;;;7.03;4.22;;;9.50;99.90;;;7.57;100.00;98775.47;5007679;28;20060;-84
2022/01/04 04:45:30;;;;;;;9.32;4.18;;;9.50;99.90;;;7.47;100.00;98766.94;5008314;28;20297;-84
2022/01/04 04:47:57;;;;;;;7.53;4.10;;;9.50;99.90;;;7.50;100.00;98761.94;5008304;28;20103;-84
2022/01/04 04:50:24;;;;;;;8.73;4.07;;;9.50;99.90;;;7.63;100.00;98766.50;5008379;28;20058;-84
2022/01/04 04:52:52;;;;;;;9.18;4.65;;;9.50;99.90;;;7.60;100.00;98761.53;5007605;28;20129;-84
2022/01/04 04:55:20;;;;;;;8.52;4.13;;;9.50;99.90;;;7.64;100.00;98752.75;4990527;28;20045;-84
2022/01/04 04:57:47;;;;;;;8.07;4.32;;;9.50;99.90;;;7.54;100.00;98748.78;5008054;28;20109;-84
2022/01/04 05:00:16;;;;;;;7.07;4.28;;;9.50;99.90;;;7.52;100.00;98761.72;5008614;28;20160;-84
2022/01/04 05:02:43;;;;;;;7.95;4.00;;;9.50;99.90;;;7.59;100.00;98759.84;5007482;28;20069;-84
2022/01/04 05:05:12;;;;;;;9.15;4.75;;;9.50;99.90;;;7.53;100.00;98752.56;5008278;28;20075;-84
2022/01/04 05:07:39;;;;;;;7.15;4.28;;;9.50;99.90;;;7.50;100.00;98755.69;5008061;28;20064;-83
2022/01/04 05:10:09;;;;;;;9.30;4.00;;;9.50;99.90;;;7.58;100.00;98758.19;5007677;28;20070;-84
2022/01/04 05:12:38;;;;;;;8.75;5.00;;;9.50;99.90;;;7.62;100.00;98759.44;5005139;28;20191;-84
2022/01/04 05:15:07;;;;;;;8.30;4.30;;;9.50;99.90;;;7.63;100.00;98755.66;5008137;28;20104;-84
2022/01/04 05:17:34;;;;;;;9.23;4.75;;;9.50;99.90;;;7.65;100.00;98750.88;5008061;28;20148;-84
2022/01/04 05:20:02;;;;;;;8.05;4.63;;;9.70;99.90;;;7.59;100.00;98752.53;5008243;28;20137;-84
2022/01/04 05:22:30;;;;;;;11.35;5.03;;;9.50;99.90;;;7.52;100.00;98754.44;5005868;28;20053;-84
2022/01/04 05:24:57;;;;;;;8.80;5.68;;;9.50;99.90;;;7.55;100.00;98758.59;5006692;28;20529;-84
2022/01/04 05:27:24;;;;;;;6.88;4.65;;;9.50;99.90;;;7.58;100.00;98759.00;5007945;28;20049;-84
2022/01/04 05:29:53;;;;;;;8.25;5.68;;;9.50;99.90;;;7.60;100.00;98766.94;5007955;28;20125;-84
2022/01/04 05:32:20;;;;;;;9.68;5.38;;;9.50;99.90;;;7.50;100.00;98752.97;5022397;28;20104;-84
2022/01/04 05:34:47;;;;;;;9.57;5.55;;;9.50;99.90;;;7.54;100.00;98757.78;5008029;28;20042;-85
2022/01/04 05:37:15;;;;;;;11.90;5.95;;;9.50;99.90;;;7.51;100.00;98747.34;5007800;28;20459;-84
2022/01/04 05:39:42;;;;;;;9.13;5.47;;;9.40;99.90;;;7.53;100.00;98749.84;5007976;28;20049;-84
2022/01/04 05:42:09;;;;;;;9.52;5.60;;;9.40;99.90;;;7.53;100.00;98745.25;5009386;28;20181;-84
2022/01/04 05:44:37;;;;;;;8.52;5.90;;;9.40;99.90;;;7.50;100.00;98744.84;5011256;28;20046;-84
2022/01/04 05:47:06;;;;;;;9.68;5.90;;;9.40;99.90;;;7.54;100.00;98740.69;5011287;28;20049;-84
2022/01/04 05:49:34;;;;;;;9.98;6.40;;;9.40;99.90;;;7.61;100.00;98741.50;5011306;28;20066;-84
2022/01/04 05:52:04;;;;;;;11.85;6.95;;;9.40;99.90;;;7.64;100.00;98741.09;5010322;28;20052;-84
2022/01/04 05:54:31;;;;;;;13.20;6.70;;;9.40;99.90;;;7.60;100.00;98735.28;5011238;28;20050;-84
2022/01/04 05:56:58;;;;;;;9.80;6.57;;;9.40;99.90;;;7.64;100.00;98730.28;5010875;28;20588;-84
2022/01/04 05:59:26;;;;;;;10.88;7.00;;;9.40;99.90;;;7.64;100.00;98719.44;5011314;28;20115;-83
2022/01/04 06:01:53;;;;;;;11.82;6.40;;;9.40;99.90;;;7.56;100.00;98725.91;5010354;28;20052;-84
2022/01/04 06:04:21;;;;;;;12.07;6.68;;;9.40;99.90;;;7.57;100.00;98724.03;5011344;28;20637;-84
2022/01/04 06:06:49;;;;;;;10.82;6.90;;;9.40;99.90;;;7.57;100.00;98719.44;5010802;28;20081;-83
2022/01/04 06:09:22;;;;;;;11.70;6.82;;;9.40;99.90;;;7.60;100.00;98707.38;5011178;28;20128;-84
2022/01/04 06:11:59;;;;;;;11.32;7.47;;;9.40;99.90;;;7.62;100.00;98700.69;5008575;28;20054;-84
2022/01/04 06:17:12;;;;;;;13.57;7.07;;;9.40;99.90;;;7.54;100.00;98681.13;5010594;28;20503;-86
2022/01/04 06:19:42;;;;;;;14.52;8.20;;;9.40;99.90;;;7.55;100.00;98688.22;5010673;28;20565;-88
2022/01/04 06:22:09;;;;;;;11.68;7.50;;;9.40;99.90;;;7.57;100.00;98680.72;5009946;28;20136;-87
2022/01/04 06:24:45;;;;;;;11.48;7.18;;;9.40;99.90;;;7.57;100.00;98686.97;5010698;28;20073;-88
2022/01/04 06:27:13;;;;;;;12.32;7.68;;;9.40;99.90;;;7.58;100.00;98691.34;5009112;28;20056;-88
2022/01/04 06:29:41;;;;;;;12.70;7.75;;;9.40;99.90;;;7.62;100.00;98683.63;5010593;28;20030;-88
2022/01/04 06:32:10;;;;;;;13.20;8.38;;;9.50;99.90;;;7.64;100.00;98686.97;4986156;28;20078;-87
2022/01/04 06:34:39;;;;;;;15.98;8.25;;;9.40;99.90;;;7.59;100.00;98681.34;4990930;28;20038;-87
2022/01/04 06:37:09;;;;;;;13.68;8.27;;;9.40;99.90;;;7.49;100.00;98680.94;4990911;28;20038;-88
2022/01/04 06:39:37;;;;;;;16.80;8.40;;;9.60;99.90;;;7.53;100.00;98683.00;4990973;28;20105;-87
2022/01/04 06:42:05;;;;;;;17.75;8.60;;;9.40;99.90;;;7.58;100.00;98685.09;4990300;28;20507;-87
2022/01/04 06:44:33;;;;;;;14.52;8.23;;;9.40;99.90;;;7.54;100.00;98675.72;4990881;28;20582;-87
2022/01/04 06:47:01;;;;;;;13.55;7.97;;;9.40;99.90;;;7.53;100.00;98672.19;4992695;28;20058;-87
2022/01/04 06:49:28;;;;;;;13.30;7.70;;;9.40;99.90;;;7.42;100.00;98657.44;5008859;28;20050;-87
2022/01/04 06:51:56;;;;;;;14.10;8.10;;;9.40;99.90;;;7.43;100.00;98659.09;5008812;28;20498;-86
2022/01/04 06:54:25;;;;;;;13.35;8.32;;;9.40;99.90;;;7.45;100.00;98653.47;5010109;28;20132;-86
2022/01/04 06:56:52;;;;;;;15.52;7.85;;;9.40;99.90;;;7.58;100.00;98652.63;5009820;28;20038;-87
2022/01/04 06:59:20;;;;;;;15.55;9.02;;;9.40;99.90;;;7.57;100.00;98649.06;5009982;28;20125;-86
2022/01/04 07:01:48;;;;;;;15.45;9.30;;;9.40;99.90;;;7.53;100.00;98647.81;4991393;28;20127;-84
2022/01/04 07:04:15;;;;;;;13.43;8.68;;;9.40;99.90;;;7.46;100.00;98640.75;5009939;28;20041;-85
2022/01/04 07:06:43;;;;;;;16.77;8.70;;;9.40;99.90;;;7.48;100.00;98644.91;4992064;28;20734;-85
2022/01/04 07:09:11;;;;;;;15.48;9.30;;;9.40;99.90;;;7.51;100.00;98655.31;5009974;28;20046;-85
2022/01/04 07:11:39;;;;;;;14.95;8.88;;;9.40;99.90;;;7.55;100.00;98645.72;5006619;28;20518;-84
2022/01/04 07:14:07;;;;;;;18.30;9.77;;;9.40;99.90;;;7.57;100.00;98645.53;5009369;28;20046;-84
2022/01/04 07:16:34;;;;;;;18.00;9.88;;;9.40;99.90;;;7.50;100.00;98653.69;5009718;28;20081;-85
2022/01/04 07:19:02;;;;;;;15.75;9.93;;;9.40;99.90;;;7.48;100.00;98654.91;5010002;28;20080;-88
2022/01/04 07:21:29;;;;;;;14.43;9.25;;;9.40;99.90;;;7.41;100.00;98650.34;5008924;28;20088;-85
2022/01/04 07:23:56;;;;;;;21.40;11.07;;;9.40;99.90;;;7.42;100.00;98646.59;5009587;28;20050;-86
2022/01/04 07:26:24;;;;;;;21.77;11.60;;;9.40;99.90;;;7.41;100.00;98657.63;5009279;28;20108;-87
2022/01/04 07:28:53;;;;;;;21.38;11.43;;;9.30;99.90;;;7.39;100.00;98649.72;5006927;28;20042;-86
2022/01/04 07:31:20;;;;;;;16.98;10.68;;;9.40;99.90;;;7.49;100.00;98630.34;5006625;28;20571;-88
2022/01/04 07:33:48;;;;;;;21.70;12.30;;;9.40;99.90;;;7.50;100.00;98623.91;5008758;28;20056;-86
2022/01/04 07:36:16;;;;;;;19.45;11.35;;;9.30;99.90;;;7.52;100.00;98626.38;5009170;28;20049;-86
2022/01/04 07:38:44;;;;;;;18.70;10.88;;;9.40;99.90;;;7.45;100.00;98618.28;5008540;28;20052;-87
2022/01/04 07:41:12;;;;;;;19.30;11.88;;;9.30;99.90;;;7.43;100.00;98620.38;4990334;28;20152;-87
2022/01/04 07:43:40;;;;;;;20.95;11.43;;;9.30;99.90;;;7.41;100.00;98612.47;5009290;28;20076;-87
2022/01/04 07:46:09;;;;;;;17.90;10.30;;;9.30;99.90;;;7.42;100.00;98618.69;5008810;28;20046;-87
2022/01/04 07:48:36;;;;;;;20.90;11.40;;;9.30;99.90;;;7.31;100.00;98625.59;5007687;28;20057;-87
2022/01/04 07:51:04;;;;;;;20.95;12.20;;;9.30;99.90;;;7.27;100.00;98626.22;4990041;28;20590;-86
2022/01/04 07:53:32;;;;;;;19.17;11.65;;;9.40;99.90;;;7.30;100.00;98621.22;4991222;28;20038;-86
2022/01/04 07:55:59;;;;;;;29.25;11.40;;;9.40;99.90;;;7.33;100.00;98620.81;5008820;28;20057;-87
2022/01/04 07:58:27;;;;;;;23.25;11.98;;;9.40;99.90;;;7.31;100.00;98620.19;5009036;28;20046;-87
2022/01/04 08:00:54;;;;;;;26.23;13.18;;;9.30;99.90;;;7.27;100.00;98621.63;4992227;28;20045;-87
2022/01/04 08:03:23;;;;;;;25.00;12.27;;;9.30;99.90;;;7.25;100.00;98618.28;4989190;28;20048;-86
2022/01/04 08:05:50;;;;;;;33.00;13.38;;;9.30;99.90;;;7.24;100.00;98616.66;4989796;28;20046;-87
2022/01/04 08:08:18;;;;;;;25.25;12.75;;;9.30;99.90;;;7.40;100.00;98616.19;5008831;28;20104;-84
2022/01/04 08:10:46;;;;;;;29.85;12.40;;;9.30;99.90;;;7.33;100.00;98606.41;5007439;28;20111;-87
2022/01/04 08:13:14;;;;;;;33.92;12.65;;;9.30;99.90;;;7.31;100.00;98611.22;4989770;28;20065;-86
2022/01/04 08:15:41;;;;;;;29.60;12.35;;;9.30;99.90;;;7.32;100.00;98602.88;5007884;28;20060;-89
2022/01/04 08:18:08;;;;;;;24.85;12.90;;;9.30;99.90;;;7.43;100.00;98620.38;4989449;28;20080;-87
2022/01/04 08:20:37;;;;;;;24.40;13.75;;;9.30;99.90;;;7.25;100.00;98618.28;4989023;28;20050;-87
2022/01/04 08:23:04;;;;;;;26.52;12.73;;;9.30;99.90;;;7.29;100.00;98619.56;4990008;28;20056;-87
2022/01/04 08:25:32;;;;;;;25.75;12.82;;;9.30;99.90;;;7.36;100.00;98620.38;4991822;28;20089;-87
2022/01/04 08:27:59;;;;;;;22.70;12.32;;;9.30;99.90;;;7.34;100.00;98627.88;4988634;28;20077;-86
2022/01/04 08:30:27;;;;;;;22.55;12.18;;;9.20;99.90;;;7.44;100.00;98622.00;4990530;28;20581;-88
2022/01/04 08:32:54;;;;;;;32.72;12.65;;;9.30;99.90;;;7.46;100.00;98614.50;4986547;28;20074;-86
2022/01/04 08:35:22;;;;;;;23.63;12.27;;;9.20;99.90;;;7.43;100.00;98618.47;4971243;28;20144;-85
2022/01/04 08:37:51;;;;;;;28.75;12.50;;;9.30;99.90;;;7.48;100.00;98617.00;4970919;28;20074;-85
2022/01/04 08:40:18;;;;;;;25.90;12.52;;;9.30;99.90;;;7.46;100.00;98605.56;4973916;28;20046;-85
2022/01/04 08:42:45;;;;;;;27.98;13.48;;;9.30;99.90;;;7.46;100.00;98606.41;4987594;28;20077;-85
2022/01/04 08:45:13;;;;;;;25.05;13.15;;;9.30;99.90;;;7.40;100.00;98605.38;4997943;28;20129;-85
2022/01/04 08:47:41;;;;;;;32.65;12.23;;;9.30;99.90;;;7.36;100.00;98604.13;5003470;28;20041;-85
2022/01/04 08:50:12;;;;;;;26.85;12.30;;;9.30;99.90;;;7.39;100.00;98613.72;5007563;28;20064;-85
2022/01/04 08:52:39;;;;;;;22.50;11.82;;;9.30;99.90;;;7.38;100.00;98612.03;5006448;28;20070;-84
2022/01/04 08:55:10;;;;;;;29.45;13.10;;;9.30;99.90;;;7.30;100.00;98609.56;5008332;28;20038;-84
2022/01/04 08:57:37;;;;;;;29.60;12.48;;;9.30;99.90;;;7.28;100.00;98607.06;4990641;28;20077;-85
2022/01/04 09:00:07;;;;;;;44.22;13.77;;;9.30;99.90;;;7.30;100.00;98606.84;5007857;28;20042;-84
2022/01/04 09:02:35;;;;;;;34.08;11.90;;;9.30;99.90;;;7.33;100.00;98617.25;5006587;28;20124;-84
2022/01/04 09:05:03;;;;;;;25.45;12.32;;;9.30;99.90;;;7.30;100.00;98609.56;4990388;28;20792;-84
2022/01/04 09:07:31;;;;;;;25.08;11.98;;;9.30;99.90;;;7.28;100.00;98609.78;5008281;28;20129;-84
2022/01/04 09:09:58;;;;;;;23.25;12.07;;;9.30;99.90;;;7.30;100.00;98609.56;5007908;28;20046;-84
2022/01/04 09:12:37;;;;;;;22.80;10.98;;;9.30;99.90;;;7.33;100.00;98604.56;4988805;28;20102;-84
2022/01/04 09:15:30;;;;;;;20.60;11.80;;;9.30;99.90;;;7.32;100.00;98621.84;5008877;28;20053;-84
2022/01/04 09:20:38;;;;;;;22.20;12.13;;;9.30;99.90;;;7.46;100.00;98629.94;5011275;28;20160;-84
2022/01/04 09:23:06;;;;;;;19.98;11.85;;;9.30;99.90;;;7.36;100.00;98636.59;5011497;28;20045;-84
2022/01/04 09:25:33;;;;;;;19.55;11.35;;;9.30;99.90;;;7.34;100.00;98637.88;5011706;28;20052;-85
2022/01/04 09:28:02;;;;;;;21.83;11.68;;;9.30;99.90;;;7.40;100.00;98635.13;4993803;28;20057;-85
2022/01/04 09:30:29;;;;;;;23.52;12.13;;;9.30;99.90;;;7.41;100.00;98628.69;5010599;28;20050;-84
2022/01/04 09:32:57;;;;;;;18.98;11.05;;;9.30;99.90;;;7.52;100.00;98640.75;5009548;28;20898;-85
2022/01/04 09:35:24;;;;;;;22.20;11.95;;;9.30;99.90;;;7.52;100.00;98639.91;5011715;28;20053;-85
2022/01/04 09:37:51;;;;;;;23.42;12.15;;;9.40;99.90;;;7.44;100.00;98625.56;5011314;28;20049;-84
2022/01/04 09:40:19;;;;;;;20.55;11.13;;;9.30;99.90;;;7.51;100.00;98605.78;5011159;28;20057;-85
2022/01/04 09:42:49;;;;;;;25.30;10.90;;;9.30;99.90;;;7.57;100.00;98611.16;5010853;28;20046;-84
2022/01/04 09:45:18;;;;;;;27.57;11.57;;;9.30;99.90;;;7.51;100.00;98605.78;5011690;28;20554;-84
2022/01/04 09:47:46;;;;;;;21.20;11.43;;;9.30;99.90;;;7.52;100.00;98602.00;5011216;28;20112;-84
2022/01/04 09:50:13;;;;;;;22.70;11.30;;;9.40;99.90;;;7.46;100.00;98613.69;4993062;28;20050;-85
2022/01/04 09:52:47;;;;;;;21.88;11.82;;;9.40;99.90;;;7.44;100.00;98617.47;5009938;28;20088;-91
2022/01/04 09:55:15;;;;;;;19.52;10.75;;;9.40;99.90;;;7.42;100.00;98624.97;5010962;28;20552;-84
2022/01/04 09:57:44;;;;;;;18.83;10.88;;;9.40;99.90;;;7.51;100.00;98622.03;5011133;28;20050;-84
2022/01/04 10:00:18;;;;;;;28.42;10.82;;;9.40;99.90;;;7.49;100.00;98614.09;5010504;28;20133;-83
2022/01/04 10:02:49;;;;;;;21.58;9.80;;;9.40;99.90;;;7.58;100.00;98596.59;5009253;28;20046;-84
2022/01/04 10:05:20;;;;;;;15.95;9.70;;;9.40;99.90;;;7.65;100.00;98601.97;5011042;28;20557;-84
2022/01/04 10:07:49;;;;;;;19.23;9.95;;;9.40;99.90;;;7.60;100.00;98618.88;4993244;28;20445;-84
2022/01/04 10:10:19;;;;;;;15.38;9.40;;;9.40;99.90;;;7.62;100.00;98602.41;5010272;28;20045;-84
2022/01/04 10:12:53;;;;;;;19.00;9.40;;;9.40;99.90;;;7.55;100.00;98597.00;5009488;28;20510;-84
2022/01/04 10:15:39;;;;;;;15.65;9.05;;;9.40;99.90;;;7.55;100.00;98607.00;5010796;28;20100;-84
2022/01/04 10:18:23;;;;;;;16.27;9.23;;;9.40;99.90;;;7.55;100.00;98605.13;5010552;28;20062;-84
2022/01/04 10:21:12;;;;;;;17.00;8.73;;;9.40;99.90;;;7.58;100.00;98606.59;5006760;28;20120;-85
2022/01/04 10:23:56;;;;;;;15.68;9.05;;;9.40;99.90;;;7.46;100.00;98597.44;5010446;28;20127;-84
2022/01/04 10:26:37;;;;;;;14.18;8.40;;;9.40;99.90;;;7.40;100.00;98610.78;5025208;28;20526;-84
2022/01/04 10:29:21;;;;;;;14.75;8.00;;;9.40;99.90;;;7.47;100.00;98620.78;5010814;28;20037;-84
2022/01/04 10:31:48;;;;;;;15.05;8.07;;;9.40;99.90;;;7.53;100.00;98612.63;5008687;28;20053;-83
2022/01/04 10:34:17;;;;;;;17.65;8.00;;;9.50;99.90;;;7.58;100.00;98620.13;5009753;28;20042;-84
2022/01/04 10:36:46;;;;;;;15.65;7.80;;;9.40;99.90;;;7.55;100.00;98615.13;5010313;28;20576;-84
2022/01/04 10:39:13;;;;;;;15.15;7.78;;;9.40;99.90;;;7.64;100.00;98616.56;5010536;28;20049;-84
2022/01/04 10:41:41;;;;;;;12.88;8.02;;;9.40;99.90;;;7.64;100.00;98616.56;5008213;28;20164;-84
2022/01/04 10:44:10;;;;;;;14.68;8.70;;;9.40;99.90;;;7.64;100.00;98611.16;4992583;28;20459;-83
2022/01/04 10:46:41;;;;;;;13.50;8.23;;;9.40;99.90;;;7.56;100.00;98608.69;5010262;28;20066;-84
2022/01/04 10:49:17;;;;;;;15.02;7.97;;;9.40;99.90;;;7.47;100.00;98599.94;5009912;28;20045;-84
2022/01/04 10:51:45;;;;;;;15.68;8.48;;;9.40;99.90;;;7.50;100.00;98594.13;5008150;28;20041;-84
2022/01/04 10:54:19;;;;;;;17.80;8.57;;;9.40;99.90;;;7.34;100.00;98595.38;5010148;28;20044;-84
2022/01/04 10:56:47;;;;;;;17.75;8.93;;;9.40;99.90;;;7.46;100.00;98586.63;5010088;28;20111;-84
2022/01/04 10:59:15;;;;;;;17.77;9.43;;;9.40;99.90;;;7.51;100.00;98578.72;5010124;28;20125;-83
2022/01/04 11:01:45;;;;;;;15.48;10.02;;;9.40;99.90;;;7.53;100.00;98566.63;5008900;28;20042;-83
2022/01/04 11:04:15;;;;;;;19.02;10.40;;;9.40;99.90;;;7.56;100.00;98571.63;4992503;28;20045;-84
2022/01/04 11:06:46;;;;;;;20.13;11.07;;;9.40;99.90;;;7.54;100.00;98562.88;5009748;28;20502;-83
2022/01/04 11:09:13;;;;;;;16.55;10.85;;;9.40;99.90;;;7.65;100.00;98577.59;5011247;28;20050;-83
2022/01/04 11:11:42;;;;;;;19.00;10.70;;;9.50;99.90;;;7.66;100.00;98584.69;5008479;28;20042;-84
2022/01/04 11:14:12;;;;;;;22.75;12.20;;;9.50;99.90;;;7.59;100.00;98578.47;5009506;28;20042;-84
2022/01/04 11:16:41;;;;;;;19.15;11.88;;;9.50;99.90;;;7.53;100.00;98582.03;5009355;28;20124;-83
2022/01/04 11:19:08;;;;;;;17.00;11.10;;;9.50;99.90;;;7.44;100.00;98570.59;5009504;28;20042;-84
2022/01/04 11:21:40;;;;;;;17.80;11.05;;;9.50;99.90;;;7.47;100.00;98577.47;5008039;28;20049;-83
2022/01/04 11:24:12;;;;;;;16.42;11.05;;;9.50;99.90;;;7.57;100.00;98583.25;5009077;28;20129;-83
2022/01/04 11:26:42;;;;;;;20.73;11.95;;;9.40;99.90;;;7.57;100.00;98592.22;5009099;28;20152;-83
2022/01/04 11:29:09;;;;;;;21.27;11.23;;;9.40;99.90;;;7.52;100.00;98593.88;5008088;28;20056;-84
2022/01/04 11:31:51;;;;;;;19.27;11.48;;;9.50;99.90;;;7.57;100.00;98602.22;5007855;28;20050;-84
2022/01/04 11:34:26;;;;;;;19.73;11.15;;;9.50;99.90;;;7.59;100.00;98602.84;4991750;28;20538;-83
2022/01/04 11:36:54;;;;;;;18.15;11.55;;;9.50;99.90;;;7.57;100.00;98596.81;5009134;28;20046;-84
2022/01/04 11:39:35;;;;;;;19.50;11.90;;;9.50;99.90;;;7.61;100.00;98592.63;4991419;28;20048;-84
2022/01/04 11:42:07;;;;;;;20.27;12.63;;;9.50;99.90;;;7.65;100.00;98585.72;5007762;28;20127;-84
2022/01/04 11:44:43;;;;;;;21.50;13.55;;;9.50;99.90;;;7.57;100.00;98580.56;4991356;28;20050;-84
2022/01/04 11:47:15;;;;;;;19.63;13.43;;;9.60;99.90;;;7.56;100.00;98576.22;5009034;28;20108;-84
2022/01/04 11:50:09;;;;;;;31.08;14.07;;;9.80;99.90;;;7.60;100.00;98563.91;5009211;28;20479;-84
2022/01/04 11:52:43;;;;;;;20.60;13.60;;;9.60;99.90;;;7.68;100.00;98558.25;5006953;28;20050;-84
2022/01/04 11:55:22;;;;;;;23.08;13.30;;;9.60;99.90;;;7.72;100.00;98573.00;5008738;28;20057;-84
2022/01/04 11:57:51;;;;;;;20.23;12.70;;;9.60;99.90;;;7.68;100.00;98563.66;5008779;28;20060;-85
2022/01/04 12:00:27;;;;;;;21.40;12.63;;;9.60;99.90;;;7.71;100.00;98565.94;5008207;28;20830;-84
2022/01/04 12:03:18;;;;;;;20.60;12.50;;;9.60;99.90;;;7.68;100.00;98552.81;5006685;28;20453;-84
2022/01/04 12:06:01;;;;;;;23.40;12.15;;;9.70;99.90;;;7.76;100.00;98549.88;5003919;28;20096;-84
2022/01/04 12:08:35;;;;;;;26.10;13.10;;;9.70;99.90;;;7.79;100.00;98544.03;5008771;28;20057;-84
2022/01/04 12:11:19;;;;;;;24.15;12.50;;;9.60;99.90;;;7.83;100.00;98550.69;5006342;28;20069;-84
2022/01/04 12:13:51;;;;;;;23.83;11.90;;;9.60;99.90;;;7.79;100.00;98545.91;4991003;28;20061;-84
2022/01/04 12:16:33;;;;;;;19.63;11.82;;;9.70;99.90;;;7.78;100.00;98545.06;4981958;28;20074;-84
2022/01/04 12:19:04;;;;;;;24.52;12.40;;;9.70;99.90;;;7.74;100.00;98557.38;4987713;28;20562;-84
2022/01/04 12:21:40;;;;;;;21.13;12.35;;;9.60;99.90;;;7.76;100.00;98552.56;5006114;28;20073;-84
2022/01/04 12:24:10;;;;;;;27.10;13.80;;;9.60;99.90;;;7.75;100.00;98555.50;5008644;28;20073;-84
2022/01/04 12:26:40;;;;;;;25.08;12.60;;;9.60;99.90;;;7.77;100.00;98567.78;4990588;28;20133;-89
2022/01/04 12:29:32;;;;;;;23.52;13.45;;;9.60;99.90;;;7.78;100.00;98563.19;5008436;28;20075;-86
2022/01/04 12:32:03;;;;;;;25.52;13.82;;;9.60;99.90;;;7.75;100.00;98559.06;5006362;28;20132;-86
2022/01/04 12:35:03;;;;;;;27.63;15.40;;;9.80;99.90;;;7.79;100.00;98562.16;4990608;28;20042;-84
2022/01/04 12:37:36;;;;;;;33.58;14.55;;;9.70;99.90;;;7.79;100.00;98565.69;5008338;28;20098;-87
2022/01/04 12:40:04;;;;;;;26.20;15.15;;;9.60;99.90;;;7.75;100.00;98574.44;5006666;28;20777;-88
2022/01/04 12:42:32;;;;;;;29.90;15.05;;;9.60;99.90;;;7.66;100.00;98573.88;5006206;28;20124;-87
2022/01/04 12:45:00;;;;;;;30.38;15.35;;;9.60;99.90;;;7.66;100.00;98573.88;5008020;28;20038;-88
2022/01/04 12:47:30;;;;;;;33.75;16.35;;;9.60;99.90;;;7.70;100.00;98571.56;5008092;28;20046;-86
2022/01/04 12:50:02;;;;;;;27.30;15.07;;;9.60;99.90;;;7.74;100.00;98562.78;4990753;28;20060;-87
2022/01/04 12:52:31;;;;;;;25.80;15.65;;;9.60;99.90;;;7.72;100.00;98564.88;4993020;28;20054;-87
2022/01/04 12:54:58;;;;;;;29.63;16.23;;;9.60;99.90;;;7.72;100.00;98562.19;5012187;28;20069;-87
2022/01/04 12:57:26;;;;;;;26.08;14.70;;;9.70;99.90;;;7.76;100.00;98558.00;5012078;28;20069;-87
2022/01/04 12:59:57;;;;;;;32.45;16.95;;;9.60;99.90;;;7.76;100.00;98549.88;4994157;28;20574;-87
2022/01/04 13:02:27;;;;;;;30.40;16.38;;;9.60;99.90;;;7.64;100.00;98544.28;5009723;28;20093;-87
2022/01/04 13:04:58;;;;;;;31.13;16.40;;;9.60;99.90;;;7.66;100.00;98548.69;4994286;28;20077;-87
2022/01/04 13:07:30;;;;;;;31.27;16.48;;;9.70;99.90;;;7.63;100.00;98541.78;5011904;28;20346;-87
2022/01/04 13:10:07;;;;;;;26.70;15.05;;;9.70;99.90;;;7.65;100.00;98531.59;5011226;28;20045;-87
2022/01/04 13:12:39;;;;;;;27.02;15.75;;;9.70;99.90;;;7.68;100.00;98536.59;5010046;28;20104;-88
2022/01/04 13:15:10;;;;;;;29.17;16.02;;;9.60;99.90;;;7.80;100.00;98529.44;4994163;28;20046;-87
2022/01/04 13:17:43;;;;;;;30.27;16.63;;;9.60;99.90;;;7.75;100.00;98529.28;5011741;28;20144;-87
2022/01/04 13:20:12;;;;;;;32.22;16.40;;;9.60;99.90;;;7.75;100.00;98515.72;5009713;28;20128;-88
2022/01/04 13:22:39;;;;;;;29.35;16.52;;;9.60;99.90;;;7.73;100.00;98523.25;5006194;28;20052;-87
2022/01/04 13:25:09;;;;;;;33.65;17.15;;;9.70;99.90;;;7.77;100.00;98513.63;5009987;28;20045;-87
2022/01/04 13:27:39;;;;;;;38.07;17.53;;;9.60;99.90;;;7.73;100.00;98515.13;5011551;28;20463;-87
2022/01/04 13:30:17;;;;;;;33.53;17.27;;;9.70;99.90;;;7.74;100.00;98519.47;5011670;28;20066;-92
2022/01/04 13:32:47;;;;;;;30.10;17.17;;;9.70;99.90;;;7.74;100.00;98524.88;4992087;28;20052;-92
2022/01/04 13:35:20;;;;;;;27.17;17.47;;;9.70;99.90;;;7.75;100.00;98518.44;5011817;28;20042;-91
2022/01/04 13:37:51;;;;;;;31.40;17.58;;;9.60;99.90;;;7.69;100.00;98515.75;4994561;28;20359;-91
2022/01/04 13:40:27;;;;;;;36.42;18.58;;;9.60;99.90;;;7.73;100.00;98517.81;4992803;28;20070;-93
2022/01/04 13:43:03;;;;;;;29.10;16.73;;;9.60;99.90;;;7.78;100.00;98523.41;4974467;28;20046;-93
2022/01/04 13:46:49;;;;;;;33.45;16.35;;;9.70;99.90;;;7.77;100.00;98524.47;4976946;28;20058;-93
2022/01/04 13:49:41;;;;;;;30.55;15.55;;;9.60;99.90;;;7.71;100.00;98525.34;4983989;28;20104;-94
2022/01/04 13:56:05;;;;;;;30.35;15.07;;;9.70;99.90;;;7.74;100.00;98534.88;4997067;28;20044;-93
2022/01/04 13:58:46;;;;;;;30.85;15.10;;;9.60;99.90;;;7.68;100.00;98536.59;4997274;28;20495;-94
2022/01/04 14:01:53;;;;;;;26.73;14.27;;;9.60;99.90;;;7.73;100.00;98542.19;4995672;28;20057;-93
2022/01/04 14:04:46;;;;;;;27.95;14.32;;;9.60;99.90;;;7.68;100.00;98550.13;4939981;23;20578;-90
2022/01/04 14:07:15;;;;;;;28.90;14.75;;;9.60;99.90;;;7.68;100.00;98557.41;4972343;28;20410;-91
2022/01/04 14:09:45;;;;;;;30.60;14.45;;;9.60;99.90;;;7.64;100.00;98563.25;4988096;28;20042;-91